Latest Weather Observations for Laverton

IDV60901

Issued at 8:21 am EST Tuesday 17 September 2019 (issued every 10 minutes, with the page automatically refreshed every 10 minutes)

About weather observations | Map of Melbourne area stations | Latest observations for Melbourne area | Other Formats
Station Details ID: 087031 Name: LAVERTON RAAF Lat: -37.86 Lon: 144.76 Height: 20.1 m
Data from the previous 72 hours. | See also: Recent months at Laverton
Date/Time
EST
Temp
°C
App
Temp
°C
Dew
Point
°C
Rel
Hum
%
Delta-T
°C
Wind Press
QNH
hPa
Press
MSL
hPa
Rain since
9am
mm
Dir  Spd
km/h
Gust
km/h
Spd
kts
Gust
kts
17/08:00am 9.5 5.0 2.4 61 3.0 SE 15 20 8 11 1028.3 1028.3 0.0
17/07:30am 8.7 5.9 3.1 68 2.4 ESE 7 9 4 5 1027.9 1027.9 0.0
17/07:00am 7.6 4.5 1.5 65 2.5 E 7 13 4 7 1027.7 1027.7 0.0
17/06:30am 7.0 3.1 1.1 66 2.4 ESE 11 19 6 10 1027.5 1027.5 0.0
17/06:00am 7.4 3.4 0.4 61 2.7 SE 11 19 6 10 1027.3 1027.3 0.0
17/05:30am 8.1 2.5 -0.1 56 3.2 SE 19 24 10 13 1027.1 1027.1 0.0
17/05:00am 8.2 3.5 0.9 60 2.9 SE 15 22 8 12 1026.9 1026.9 0.0
17/04:30am 8.0 3.2 0.5 59 3.0 SE 15 20 8 11 1026.7 1026.7 0.0
17/04:00am 8.1 3.4 0.8 60 2.9 SE 15 22 8 12 1026.5 1026.5 0.0
17/03:30am 8.2 3.6 1.6 63 2.7 SE 15 22 8 12 1026.3 1026.3 0.0
17/03:00am 8.3 4.3 3.0 69 2.2 SSE 13 20 7 11 1026.4 1026.4 0.0
17/02:30am 7.7 3.6 2.0 67 2.3 SSE 13 20 7 11 1026.4 1026.4 0.0
17/02:00am 8.3 2.9 1.5 62 2.8 SSE 19 28 10 15 1026.4 1026.4 0.0
17/01:30am 8.5 3.6 2.3 65 2.6 SSE 17 24 9 13 1026.5 1026.5 0.0
17/01:00am 8.7 3.1 1.1 59 3.1 SSE 20 28 11 15 1026.7 1026.7 0.0
17/12:30am 8.8 2.9 1.5 60 3.0 SSE 22 33 12 18 1026.9 1026.9 0.0
17/12:00am 8.5 3.1 1.4 61 2.9 SSE 19 30 10 16 1026.8 1026.8 0.0
 
Date/Time
EST
Temp
°C
App
Temp
°C
Dew
Point
°C
Rel
Hum
%
Delta-T
°C
Wind Press
QNH
hPa
Press
MSL
hPa
Rain since
9am
mm
Dir  Spd
km/h
Gust
km/h
Spd
kts
Gust
kts
16/11:30pm 8.8 3.9 2.2 63 2.8 SSE 17 30 9 16 1026.6 1026.6 0.0
16/11:00pm 8.4 3.8 1.6 62 2.8 SSE 15 22 8 12 1026.7 1026.7 0.0
16/10:30pm 8.6 3.6 1.1 59 3.0 SSE 17 28 9 15 1026.7 1026.7 0.0
16/10:00pm 8.0 3.4 1.8 65 2.5 S 15 24 8 13 1026.6 1026.6 0.0
16/09:30pm 8.0 3.5 2.0 66 2.5 S 15 20 8 11 1026.4 1026.4 0.0
16/09:00pm 8.1 3.0 2.8 69 2.2 S 19 26 10 14 1026.3 1026.3 0.0
16/08:30pm 7.9 3.9 2.8 70 2.1 S 13 19 7 10 1026.0 1026.0 0.0
16/08:00pm 8.1 3.7 2.8 69 2.2 S 15 22 8 12 1025.9 1025.9 0.0
16/07:30pm 8.2 3.4 2.7 68 2.3 S 17 26 9 14 1025.7 1025.7 0.0
16/07:00pm 9.1 3.4 3.1 66 2.6 SSE 22 32 12 17 1025.4 1025.4 0.0
16/06:30pm 9.1 3.7 1.0 57 3.3 S 19 28 10 15 1024.9 1024.9 0.0
16/06:00pm 9.5 3.0 0.4 53 3.6 S 24 35 13 19 1024.6 1024.6 0.0
16/05:30pm 10.1 2.8 -0.1 49 4.1 S 28 39 15 21 1024.1 1024.1 0.0
16/05:00pm 10.7 3.5 1.0 51 4.0 S 28 41 15 22 1023.5 1023.5 0.0
16/04:30pm 10.9 3.8 1.2 51 4.0 S 28 39 15 21 1023.1 1023.1 0.0
16/04:00pm 11.3 3.8 1.5 51 4.1 S 30 44 16 24 1022.9 1022.9 0.0
16/03:41pm 11.5 4.6 2.3 53 4.0 S 28 46 15 25 1022.8 1022.8 0.0
16/03:30pm 11.6 4.0 3.1 56 3.7 S 32 43 17 23 1022.8 1022.8 0.0
16/03:00pm 11.3 4.2 1.3 50 4.2 S 28 41 15 22 1022.5 1022.5 0.0
16/02:30pm 11.4 4.9 2.4 54 3.9 SSE 26 37 14 20 1022.5 1022.5 0.0
16/02:00pm 12.2 4.7 1.5 48 4.5 S 30 41 16 22 1022.1 1022.1 0.0
16/01:30pm 12.3 6.3 3.3 54 4.0 S 24 35 13 19 1021.9 1021.9 0.0
16/01:17pm 11.8 4.5 2.3 52 4.1 S 30 50 16 27 1021.9 1021.9 0.0
16/01:00pm 12.2 5.4 3.2 54 4.0 S 28 43 15 23 1021.9 1021.9 0.0
16/12:30pm 12.2 4.9 4.4 59 3.5 S 32 41 17 22 1021.7 1021.7 0.0
16/12:00pm 12.0 4.9 3.8 57 3.6 S 30 44 16 24 1021.4 1021.4 0.0
16/11:30am 12.3 5.2 3.8 56 3.8 S 30 41 16 22 1021.4 1021.4 0.0
16/11:00am 12.3 4.8 1.0 46 4.7 S 30 39 16 21 1021.3 1021.3 0.0
16/10:30am 12.5 6.2 3.5 54 4.0 S 26 35 14 19 1021.1 1021.1 0.0
16/10:00am 11.8 6.0 4.3 60 3.4 SSW 24 35 13 19 1020.8 1020.8 0.0
16/09:30am 11.1 5.9 5.6 69 2.5 SSW 22 30 12 16 1020.9 1020.9 0.0
16/09:00am 10.8 6.7 6.2 73 2.1 SSW 17 22 9 12 1020.8 1020.8 9.6
16/08:30am 10.5 6.9 6.6 77 1.8 SW 15 20 8 11 1020.5 1020.5 9.6
16/08:00am 9.7 6.6 7.1 84 1.2 WSW 13 20 7 11 1020.0 1020.0 9.6
16/07:30am 9.1 6.1 7.5 90 0.8 WSW 13 17 7 9 1019.9 1019.9 9.6
16/07:00am 8.9 6.2 7.5 91 0.7 WSW 11 17 6 9 1019.7 1019.7 9.6
16/06:30am 8.9 6.2 7.4 90 0.7 WSW 11 15 6 8 1019.2 1019.2 9.6
16/06:00am 9.3 6.6 7.3 87 0.9 WSW 11 13 6 7 1018.8 1018.8 9.6
16/05:30am 9.8 5.9 7.2 84 1.2 WSW 17 22 9 12 1018.3 1018.3 9.6
16/05:00am 10.1 6.7 7.5 84 1.2 WSW 15 19 8 10 1018.1 1018.1 9.6
16/04:30am 10.1 7.1 7.9 86 1.1 WSW 13 19 7 10 1017.7 1017.7 9.6
16/04:00am 10.1 8.1 8.5 90 0.8 W 9 15 5 8 1017.7 1017.7 9.6
16/03:30am 10.0 7.2 8.6 91 0.7 WSW 13 19 7 10 1017.5 1017.5 9.6
16/03:00am 9.9 7.2 9.1 95 0.4 WNW 13 20 7 11 1017.4 1017.4 9.6
16/02:30am 10.0 7.3 9.1 94 0.4 W 13 20 7 11 1016.9 1016.9 9.6
16/02:00am 10.0 6.7 9.7 98 0.2 W 17 20 9 11 1017.1 1017.1 9.4
16/01:42am 9.9 6.3 9.8 99 0.1 WSW 19 24 10 13 1016.8 1016.8 9.4
16/01:30am 9.8 6.1 9.5 98 0.1 WSW 19 24 10 13 1016.8 1016.8 9.4
16/01:15am 10.0 5.3 9.1 94 0.4 WSW 24 35 13 19 1017.0 1017.0 8.2
16/01:00am 10.1 5.6 8.7 91 0.7 SW 22 32 12 17 1016.7 1016.7 7.4
16/12:36am 10.8 5.2 8.7 87 1.0 SW 28 43 15 23 1016.5 1016.5 7.2
16/12:30am 11.1 5.7 9.5 90 0.8 SW 28 41 15 22 1016.4 1016.4 7.2
16/12:00am 11.9 6.2 11.1 95 0.4 SW 32 46 17 25 1015.6 1015.6 7.2
 
Date/Time
EST
Temp
°C
App
Temp
°C
Dew
Point
°C
Rel
Hum
%
Delta-T
°C
Wind Press
QNH
hPa
Press
MSL
hPa
Rain since
9am
mm
Dir  Spd
km/h
Gust
km/h
Spd
kts
Gust
kts
15/11:57pm 12.2 6.6 11.4 95 0.4 SW 32 46 17 25 1015.7 1015.7 7.2
15/11:50pm 13.3 10.3 12.0 92 0.7 WSW 19 46 10 25 1015.6 1015.6 7.2
15/11:30pm 13.7 13.4 12.8 94 0.5 WNW 6 9 3 5 1015.2 1015.2 6.6
15/11:28pm 13.7 13.4 12.8 94 0.5 WNW 6 7 3 4 1015.0 1015.0 6.6
15/11:10pm 13.9 12.6 12.6 92 0.7 WNW 11 17 6 9 1015.1 1015.1 6.6
15/11:00pm 13.7 12.7 12.4 92 0.7 NW 9 13 5 7 1015.0 1015.0 6.0
15/10:30pm 14.3 12.8 11.8 85 1.3 NNW 11 17 6 9 1014.4 1014.4 6.0
15/10:00pm 14.2 13.3 12.6 90 0.9 NW 9 13 5 7 1015.3 1015.3 5.8
15/09:30pm 14.5 12.7 12.2 86 1.2 NW 13 17 7 9 1015.6 1015.6 5.8
15/09:00pm 14.3 13.0 12.5 89 1.0 NNW 11 19 6 10 1014.8 1014.8 5.8
15/08:30pm 14.2 12.7 13.2 94 0.6 N 13 17 7 9 1015.0 1015.0 5.6
15/08:00pm 14.5 13.0 14.2 98 0.2 N 15 20 8 11 1015.6 1015.6 5.6
15/07:30pm 14.6 13.3 13.8 95 0.4 NNW 13 17 7 9 1016.5 1016.5 4.6
15/07:19pm 14.7 12.6 13.6 93 0.6 NW 17 30 9 16 1016.8 1016.8 4.0
15/07:00pm 15.2 12.4 13.2 88 1.1 WSW 20 30 11 16 1017.3 1017.3 3.2
15/06:40pm 16.7 14.5 12.0 74 2.6 W 15 22 8 12 1016.8 1016.8 1.0
15/06:30pm 16.6 15.1 12.0 74 2.5 W 11 15 6 8 1016.4 1016.4 0.2
15/06:00pm 16.7 14.8 11.8 73 2.7 NW 13 17 7 9 1015.5 1015.5 0.2
15/05:30pm 17.5 16.0 11.8 69 3.1 NW 11 15 6 8 1014.8 1014.8 0.0
15/05:00pm 17.5 15.1 11.3 67 3.4 NW 15 24 8 13 1014.9 1014.9 0.0
15/04:30pm 18.7 15.2 10.3 58 4.5 WNW 19 28 10 15 1015.7 1015.7 0.0
15/04:00pm 17.8 15.2 10.7 63 3.8 NW 15 22 8 12 1015.5 1015.5 0.0
15/03:30pm 18.6 14.4 9.7 56 4.7 NW 22 32 12 17 1015.1 1015.1 0.0
15/03:00pm 19.9 15.3 9.5 51 5.5 NNW 24 39 13 21 1014.1 1014.1 0.0
15/02:30pm 20.4 16.1 9.3 49 5.9 NW 22 30 12 16 1014.5 1014.5 0.0
15/02:00pm 20.5 17.8 8.8 47 6.2 WNW 13 20 7 11 1014.8 1014.8 0.0
15/01:30pm 20.2 18.9 10.0 52 5.5 NW 7 9 4 5 1015.4 1015.4 0.0
15/01:00pm 19.3 17.4 8.9 51 5.4 N 9 15 5 8 1015.6 1015.6 0.0
15/12:30pm 17.7 15.8 9.1 57 4.5 NNE 9 13 5 7 1015.3 1015.3 0.0
15/12:00pm 16.6 14.5 8.1 57 4.3 E 9 13 5 7 1016.0 1016.0 0.0
15/11:30am 17.1 13.2 6.9 51 5.1 N 17 28 9 15 1015.7 1015.7 0.0
15/11:00am 16.5 13.0 7.4 55 4.5 N 15 24 8 13 1016.3 1016.3 0.0
15/10:30am 16.3 11.1 7.3 55 4.5 N 24 33 13 18 1016.4 1016.4 0.0
15/10:00am 15.5 10.2 7.0 57 4.2 N 24 35 13 19 1017.2 1017.2 0.0
15/09:30am 16.3 11.7 8.0 58 4.2 N 22 35 12 19 1017.5 1017.5 0.0
15/09:00am 15.1 10.3 7.4 60 3.8 N 22 33 12 18 1017.9 1017.9 0.6
15/08:30am 14.1 10.4 7.9 66 3.1 N 17 24 9 13 1018.2 1018.2 0.6
15/08:00am 13.4 9.3 7.8 69 2.8 N 19 28 10 15 1018.2 1018.2 0.6
15/07:30am 14.2 10.4 7.7 65 3.2 N 17 24 9 13 1018.5 1018.5 0.4
15/07:00am 14.1 9.9 8.1 67 3.0 NNW 20 28 11 15 1018.2 1018.2 0.4
15/06:30am 13.7 10.0 8.1 69 2.8 N 17 24 9 13 1017.7 1017.7 0.4
15/06:00am 13.4 9.3 8.5 72 2.4 NNE 20 39 11 21 1017.3 1017.3 0.4
15/05:30am 13.6 9.1 8.7 72 2.5 NNE 22 32 12 17 1016.9 1016.9 0.4
15/05:00am 13.5 9.5 9.2 75 2.2 N 20 32 11 17 1017.5 1017.5 0.4
15/04:30am 13.5 9.8 9.4 76 2.1 N 19 28 10 15 1018.2 1018.2 0.0
15/04:00am 14.8 11.9 8.3 65 3.3 N 13 19 7 10 1018.5 1018.5 0.0
15/03:30am 14.8 11.8 7.8 63 3.5 N 13 19 7 10 1018.2 1018.2 0.0
15/03:00am 15.3 12.0 6.6 56 4.2 NNE 13 19 7 10 1018.1 1018.1 0.0
15/02:30am 15.0 11.7 6.6 57 4.1 NNE 13 17 7 9 1018.8 1018.8 0.0
15/02:00am 14.9 11.4 7.0 59 3.9 NNE 15 19 8 10 1019.2 1019.2 0.0
15/01:30am 15.2 12.0 6.7 57 4.1 NNE 13 19 7 10 1019.7 1019.7 0.0
15/01:00am 15.1 12.2 6.7 57 4.1 NE 11 15 6 8 1020.0 1020.0 0.0
15/12:30am 15.1 11.9 6.7 57 4.1 NE 13 19 7 10 1020.2 1020.2 0.0
15/12:00am 14.6 12.2 7.2 61 3.6 NE 9 11 5 6 1020.7 1020.7 0.0
 
Date/Time
EST
Temp
°C
App
Temp
°C
Dew
Point
°C
Rel
Hum
%
Delta-T
°C
Wind Press
QNH
hPa
Press
MSL
hPa
Rain since
9am
mm
Dir  Spd
km/h
Gust
km/h
Spd
kts
Gust
kts
14/11:30pm 14.2 11.9 7.5 64 3.3 ENE 9 11 5 6 1020.9 1020.9 0.0
14/11:00pm 14.1 13.4 6.9 62 3.5 CALM 0 0 0 0 1021.1 1021.1 0.0
14/10:30pm 14.4 13.9 7.7 64 3.3 CALM 0 0 0 0 1021.2 1021.2 0.0
14/10:00pm 14.7 12.8 6.8 59 3.8 N 6 9 3 5 1020.9 1020.9 0.0
14/09:30pm 14.9 12.0 6.7 58 4.0 NNE 11 17 6 9 1021.0 1021.0 0.0
14/09:00pm 15.3 11.9 6.1 54 4.4 NNE 13 19 7 10 1021.2 1021.2 0.0
14/08:30pm 15.1 11.8 4.8 50 4.8 N 11 17 6 9 1021.7 1021.7 0.0
14/08:00pm 14.4 11.8 6.0 57 4.0 N 9 13 5 7 1021.5 1021.5 0.0
14/07:30pm 14.5 12.2 9.1 70 2.8 NNW 11 15 6 8 1021.5 1021.5 0.0
14/07:00pm 15.6 13.7 9.1 65 3.3 NW 9 13 5 7 1021.4 1021.4 0.0
14/06:30pm 16.8 15.3 9.2 61 3.9 NNE 7 9 4 5 1021.4 1021.4 0.0
14/06:00pm 17.2 15.8 8.9 58 4.3 NNE 6 9 3 5 1021.6 1021.6 0.0
14/05:30pm 17.6 16.6 8.7 56 4.6 E 4 7 2 4 1021.6 1021.6 0.0
14/05:00pm 17.4 16.2 9.6 60 4.1 E 6 9 3 5 1021.7 1021.7 0.0
14/04:30pm 17.2 14.7 8.4 56 4.5 E 11 15 6 8 1022.0 1022.0 0.0
14/04:00pm 17.8 16.1 8.4 54 4.8 E 7 9 4 5 1022.6 1022.6 0.0
14/03:30pm 17.2 14.7 8.1 55 4.6 ESE 11 13 6 7 1022.8 1022.8 0.0
14/03:00pm 19.0 16.1 4.7 39 6.9 NW 9 17 5 9 1022.9 1022.9 0.0
14/02:30pm 18.1 16.3 7.2 49 5.5 NNW 6 11 3 6 1023.4 1023.4 0.0
14/02:00pm 17.6 15.0 6.2 47 5.6 NW 9 19 5 10 1023.5 1023.5 0.0
14/01:30pm 15.8 13.7 8.1 60 3.9 E 9 15 5 8 1024.0 1024.0 0.0
14/01:00pm 15.4 12.6 8.4 63 3.5 SE 13 17 7 9 1024.4 1024.4 0.0
14/12:30pm 15.6 13.6 8.6 63 3.6 ESE 9 19 5 10 1024.9 1024.9 0.0
14/12:00pm 16.2 14.2 7.2 55 4.4 SSW 7 11 4 6 1025.4 1025.4 0.0
14/11:30am 15.0 12.1 6.6 57 4.1 WSW 11 17 6 9 1025.9 1025.9 0.0
14/11:00am 14.3 11.8 6.6 60 3.7 SW 9 13 5 7 1026.0 1026.0 0.0
14/10:30am 14.1 12.1 6.9 62 3.5 W 7 13 4 7 1026.3 1026.3 0.0
14/10:00am 13.9 11.9 7.0 63 3.3 W 7 11 4 6 1026.6 1026.6 0.0
14/09:30am 13.0 9.8 7.0 67 2.9 WSW 13 19 7 10 1026.9 1026.9 0.0
14/09:00am 12.4 8.2 7.5 72 2.4 WSW 19 22 10 12 1027.3 1027.3 0.0
14/08:30am 11.6 8.4 8.3 80 1.6 W 15 19 8 10 1026.9 1026.9 0.0

Latest Capital City Observations: Canberra | Sydney | Melbourne | Brisbane | Adelaide | Perth | Hobart | Darwin

Other formats

Comma delimited format used in spreadsheet applications
http://www.bom.gov.au/fwo/IDV60901/IDV60901.94865.axf

JavaScript Object Notation format (JSON) in row-major order
http://www.bom.gov.au/fwo/IDV60901/IDV60901.94865.json

Data quality

Most of these data are generated automatically and are frequently updated. Quality checks on data are not normally performed. It is possible for incorrect values to appear. Refer to information at About Latest Weather Observations and please check the disclaimer before using these data.